Time;durP1;ratioP1;P1;durP2;ratioP2;P2;SDS_P1;SDS_P2;PMS_P1;PMS_P2;Temp;Humidity;BMP_temperature;BMP_pressure;BME280_temperature;BME280_humidity;BME280_pressure;Samples;Min_cycle;Max_cycle;Signal;HPM_P1;HPM_P2
2021/11/19 00:02:22;;;;;;;54.22;30.48;;;128.60;2252.80;;;;;;5093987;28;20318;-92
2021/11/19 00:04:48;;;;;;;50.53;30.90;;;128.60;2252.80;;;;;;5093831;28;20448;-91
2021/11/19 00:07:14;;;;;;;48.88;30.52;;;128.60;2252.80;;;;;;5094457;28;20516;-92
2021/11/19 00:09:41;;;;;;;53.25;31.58;;;128.50;2252.80;;;;;;5093788;28;20403;-92
2021/11/19 00:12:08;;;;;;;55.70;33.70;;;128.40;2252.80;;;;;;5093723;28;20341;-91
2021/11/19 00:14:35;;;;;;;52.67;30.98;;;128.40;2252.80;;;;;;5093697;28;20414;-93
2021/11/19 00:17:05;;;;;;;54.88;32.05;;;128.30;2252.80;;;;;;5093600;28;20468;-92
2021/11/19 00:19:34;;;;;;;53.75;31.65;;;128.30;2252.80;;;;;;5093503;28;20443;-91
2021/11/19 00:22:00;;;;;;;53.65;29.98;;;128.30;2252.80;;;;;;5093530;28;20433;-92
2021/11/19 00:24:27;;;;;;;48.75;27.17;;;128.20;2252.80;;;;;;5093639;28;20376;-92
2021/11/19 00:26:54;;;;;;;40.95;27.48;;;128.10;2252.80;;;;;;5093133;28;20442;-92
2021/11/19 00:29:21;;;;;;;50.43;26.50;;;128.00;2252.80;;;;;;5093467;28;20388;-92
2021/11/19 00:31:47;;;;;;;49.05;29.95;;;128.10;2252.80;;;;;;5093326;28;20482;-92
2021/11/19 00:34:15;;;;;;;49.60;26.93;;;128.00;2252.80;;;;;;5093283;28;20415;-90
2021/11/19 00:36:42;;;;;;;45.53;25.75;;;103.30;2227.20;;;;;;5093452;28;20345;-90
2021/11/19 00:39:12;;;;;;;42.00;26.23;;;103.30;2227.20;;;;;;5093300;28;20369;-91
2021/11/19 00:41:39;;;;;;;38.90;25.60;;;103.30;2227.20;;;;;;5094516;28;20349;-91
2021/11/19 00:44:06;;;;;;;39.10;23.97;;;103.30;2227.20;;;;;;5093215;28;20016;-92
2021/11/19 00:46:33;;;;;;;39.90;24.83;;;103.20;2227.20;;;;;;5093713;28;20461;-92
2021/11/19 00:48:59;;;;;;;35.73;23.03;;;103.10;2227.20;;;;;;5093429;28;20414;-92
2021/11/19 00:51:30;;;;;;;44.10;23.60;;;103.00;2227.20;;;;;;5093154;28;20016;-92
2021/11/19 00:53:58;;;;;;;39.30;22.93;;;103.00;2227.20;;;;;;5093315;28;20363;-92
2021/11/19 00:56:28;;;;;;;42.03;22.63;;;102.90;2227.20;;;;;;5093096;28;20380;-91
2021/11/19 00:58:56;;;;;;;40.33;22.92;;;102.90;2227.20;;;;;;5094447;28;20479;-92
2021/11/19 01:01:31;;;;;;;38.50;24.33;;;102.90;2227.20;;;;;;5097284;28;20398;-92
2021/11/19 01:03:58;;;;;;;39.50;24.00;;;102.90;2227.20;;;;;;5097517;28;20041;-92
2021/11/19 01:06:24;;;;;;;41.30;24.47;;;102.80;2227.20;;;;;;5097629;28;20368;-91
2021/11/19 01:08:51;;;;;;;40.40;23.47;;;102.80;2227.20;;;;;;5097304;28;20424;-92
2021/11/19 01:11:20;;;;;;;44.10;25.57;;;102.70;2227.20;;;;;;5097303;28;20376;-92
2021/11/19 01:13:48;;;;;;;39.47;23.43;;;102.70;2227.20;;;;;;5097300;28;20373;-92
2021/11/19 01:16:22;;;;;;;38.83;23.73;;;102.70;2227.20;;;;;;5097074;28;20368;-92
2021/11/19 01:18:53;;;;;;;40.37;22.90;;;102.70;2227.20;;;;;;5097015;28;20488;-91
2021/11/19 01:21:36;;;;;;;40.73;23.37;;;102.80;2227.20;;;;;;5097144;28;20375;-91
2021/11/19 01:24:02;;;;;;;42.07;24.37;;;102.80;2227.20;;;;;;5096755;28;20377;-90
2021/11/19 01:26:32;;;;;;;40.33;26.13;;;102.80;2227.20;;;;;;5096650;28;20415;-91
2021/11/19 01:29:03;;;;;;;48.60;29.40;;;102.80;2227.20;;;;;;5096733;28;20367;-93
2021/11/19 01:31:37;;;;;;;51.63;27.98;;;102.80;2227.20;;;;;;5096794;28;20486;-92
2021/11/19 01:34:04;;;;;;;50.20;29.27;;;102.70;2227.20;;;;;;5096733;28;20436;-92
2021/11/19 01:36:32;;;;;;;42.63;28.47;;;102.70;2227.20;;;;;;5096778;28;20360;-92
2021/11/19 01:38:58;;;;;;;42.60;24.80;;;102.60;2227.20;;;;;;5096652;28;20349;-90
2021/11/19 01:41:32;;;;;;;39.03;23.30;;;102.70;2227.20;;;;;;5097663;28;20020;-92
2021/11/19 01:43:59;;;;;;;;;;;102.70;2227.20;;;;;;5097149;28;20517;-92
2021/11/19 01:46:29;;;;;;;39.63;23.17;;;102.60;2227.20;;;;;;5096438;28;20358;-93
2021/11/19 01:48:56;;;;;;;37.03;22.90;;;102.60;2227.20;;;;;;5096365;28;20380;-91
2021/11/19 01:51:30;;;;;;;38.20;21.70;;;102.60;2227.20;;;;;;5096303;28;20463;-92
2021/11/19 01:54:05;;;;;;;38.63;21.87;;;102.60;2227.20;;;;;;5096449;28;20346;-93
2021/11/19 01:56:45;;;;;;;38.23;22.13;;;102.60;2227.20;;;;;;5096325;28;20372;-92
2021/11/19 01:59:19;;;;;;;36.47;21.97;;;102.70;2227.20;;;;;;5096376;28;20478;-92
2021/11/19 02:01:53;;;;;;;38.60;22.33;;;102.70;2227.20;;;;;;5096220;28;20452;-92
2021/11/19 02:04:24;;;;;;;36.37;22.50;;;102.60;2227.20;;;;;;5096190;28;20411;-93
2021/11/19 02:07:01;;;;;;;35.83;23.07;;;102.60;2227.20;;;;;;5095968;28;20035;-92
2021/11/19 02:09:44;;;;;;;37.00;21.40;;;102.70;2227.20;;;;;;5096721;28;20329;-92
2021/11/19 02:12:25;;;;;;;40.72;22.73;;;102.80;2227.20;;;;;;5095312;28;20360;-93
2021/11/19 02:15:21;;;;;;;38.27;21.67;;;102.70;2227.20;;;;;;5096516;28;20365;-92
2021/11/19 02:17:51;;;;;;;36.10;22.30;;;102.70;2227.20;;;;;;5096644;28;20349;-92
2021/11/19 02:20:35;;;;;;;39.37;23.57;;;102.70;2227.20;;;;;;5096002;28;20418;-93
2021/11/19 02:23:26;;;;;;;42.15;25.45;;;102.60;2227.20;;;;;;5095822;28;20406;-92
2021/11/19 02:26:05;;;;;;;37.23;22.97;;;102.50;2227.20;;;;;;5095416;28;20371;-92
2021/11/19 02:28:34;;;;;;;33.73;21.00;;;102.70;2227.20;;;;;;5095625;28;20440;-92
2021/11/19 02:31:06;;;;;;;36.27;22.00;;;102.80;2227.20;;;;;;5095558;28;20376;-93
2021/11/19 02:33:32;;;;;;;32.83;20.47;;;102.80;2227.20;;;;;;5095586;28;20402;-92
2021/11/19 02:36:12;;;;;;;36.73;21.47;;;102.70;2227.20;;;;;;5095592;28;20055;-92
2021/11/19 02:39:07;;;;;;;37.87;23.73;;;102.80;2227.20;;;;;;5095546;28;20372;-93
2021/11/19 02:41:36;;;;;;;40.70;24.70;;;102.90;2227.20;;;;;;5093188;28;20494;-92
2021/11/19 02:44:07;;;;;;;39.23;24.83;;;102.90;2227.20;;;;;;5095379;28;20364;-92
2021/11/19 02:46:41;;;;;;;35.53;23.53;;;102.80;2227.20;;;;;;5095443;28;20360;-92
2021/11/19 02:49:08;;;;;;;36.20;22.35;;;102.80;2227.20;;;;;;5095864;28;20350;-92
2021/11/19 02:51:35;;;;;;;33.57;23.03;;;102.80;2227.20;;;;;;5095174;28;20353;-93
2021/11/19 02:54:04;;;;;;;33.60;21.87;;;102.80;2227.20;;;;;;5095718;28;20424;-93
2021/11/19 02:56:31;;;;;;;33.10;21.47;;;102.80;2227.20;;;;;;5094999;28;20455;-92
2021/11/19 02:59:00;;;;;;;30.92;21.30;;;102.70;2227.20;;;;;;5095113;28;20368;-92
2021/11/19 03:01:36;;;;;;;31.10;20.60;;;102.70;2227.20;;;;;;5095493;28;20342;-91
2021/11/19 03:04:11;;;;;;;27.37;18.27;;;102.60;2227.20;;;;;;5095061;28;20465;-92
2021/11/19 03:06:45;;;;;;;28.43;19.10;;;102.60;2227.20;;;;;;5094952;28;20375;-93
2021/11/19 03:09:14;;;;;;;32.33;19.73;;;102.60;2227.20;;;;;;5095452;28;20352;-91
2021/11/19 03:11:41;;;;;;;27.97;18.33;;;102.50;2227.20;;;;;;5094905;28;20368;-92
2021/11/19 03:14:09;;;;;;;32.43;18.17;;;102.60;2227.20;;;;;;5095313;28;20353;-92
2021/11/19 03:16:36;;;;;;;29.17;18.70;;;102.50;2227.20;;;;;;5094656;28;20020;-92
2021/11/19 03:19:05;;;;;;;34.47;21.33;;;102.50;2227.20;;;;;;5094658;28;20545;-92
2021/11/19 03:21:32;;;;;;;32.47;20.93;;;102.50;2227.20;;;;;;5094680;28;20471;-93
2021/11/19 03:23:59;;;;;;;32.13;20.33;;;102.40;2227.20;;;;;;5094500;28;20364;-93
2021/11/19 03:26:27;;;;;;;28.43;18.90;;;77.70;2227.20;;;;;;5094409;28;20463;-91
2021/11/19 03:28:53;;;;;;;28.93;19.03;;;;;;;;;;5094674;28;20364;-93
2021/11/19 03:31:20;;;;;;;30.10;19.70;;;;;;;;;;5094616;28;20024;-93
2021/11/19 03:33:48;;;;;;;29.87;19.07;;;;;;;;;;5095288;28;20403;-93
2021/11/19 03:36:19;;;;;;;30.13;19.90;;;;;;;;;;5095222;28;20337;-92
2021/11/19 03:38:47;;;;;;;30.97;19.40;;;;;;;;;;5094526;28;20488;-93
2021/11/19 03:41:15;;;;;;;31.00;18.80;;;;;;;;;;5094746;28;20399;-92
2021/11/19 03:43:46;;;;;;;32.10;19.33;;;;;;;;;;5094196;28;20373;-93
2021/11/19 03:46:15;;;;;;;33.83;19.93;;;;;;;;;;5094177;28;20341;-92
2021/11/19 03:48:42;;;;;;;30.23;17.70;;;;;;;;;;5094061;28;20471;-93
2021/11/19 03:51:29;;;;;;;29.10;17.10;;;;;;;;;;5094011;28;20380;-92
2021/11/19 03:53:56;;;;;;;30.20;18.53;;;102.90;2227.20;;;;;;5093886;28;20376;-92
2021/11/19 03:56:23;;;;;;;31.50;18.67;;;102.80;2227.20;;;;;;5094013;28;20399;-92
2021/11/19 03:58:49;;;;;;;39.67;22.33;;;102.80;2227.20;;;;;;5094509;28;20368;-93
2021/11/19 04:01:41;;;;;;;35.20;21.47;;;102.80;2227.20;;;;;;5094187;28;20361;-93
2021/11/19 04:04:09;;;;;;;30.87;18.27;;;102.90;2227.20;;;;;;5093502;28;20460;-91
2021/11/19 04:06:36;;;;;;;26.47;17.47;;;102.90;2227.20;;;;;;5093749;28;20031;-91
2021/11/19 04:09:03;;;;;;;31.30;18.57;;;102.90;2227.20;;;;;;5093652;28;20426;-91
2021/11/19 04:11:30;;;;;;;29.47;18.60;;;103.00;2227.20;;;;;;5093849;28;20372;-91
2021/11/19 04:13:57;;;;;;;28.20;17.53;;;103.00;2227.20;;;;;;5093813;28;20419;-91
2021/11/19 04:16:30;;;;;;;28.60;18.33;;;103.10;2227.20;;;;;;5093734;28;20372;-91
2021/11/19 04:18:57;;;;;;;29.48;19.45;;;103.00;2227.20;;;;;;5093889;28;20364;-92
2021/11/19 04:21:24;;;;;;;26.30;17.73;;;102.90;2227.20;;;;;;5093498;28;20386;-91
2021/11/19 04:23:52;;;;;;;28.30;17.20;;;102.90;2227.20;;;;;;5093480;28;20361;-92
2021/11/19 04:26:20;;;;;;;27.57;17.20;;;102.90;2227.20;;;;;;5093651;28;20422;-91
2021/11/19 04:28:47;;;;;;;24.17;16.50;;;103.00;2227.20;;;;;;5093476;28;20392;-91
2021/11/19 04:31:15;;;;;;;27.27;18.47;;;102.90;2227.20;;;;;;5093874;28;20066;-91
2021/11/19 04:33:42;;;;;;;26.23;17.03;;;102.90;2227.20;;;;;;5093091;28;20073;-91
2021/11/19 04:36:08;;;;;;;26.97;17.67;;;102.90;2227.20;;;;;;5093441;28;20463;-92
2021/11/19 04:38:35;;;;;;;29.23;18.60;;;102.90;2227.20;;;;;;5093540;28;20380;-91
2021/11/19 04:41:03;;;;;;;29.90;19.10;;;102.90;2227.20;;;;;;5093731;28;20359;-92
2021/11/19 04:43:30;;;;;;;26.70;18.70;;;102.90;2227.20;;;;;;5093688;28;20376;-94
2021/11/19 04:45:56;;;;;;;30.03;19.20;;;102.90;2227.20;;;;;;5093582;28;20415;-91
2021/11/19 04:48:24;;;;;;;31.43;18.43;;;103.00;2227.20;;;;;;5093393;28;20388;-91
2021/11/19 04:50:52;;;;;;;29.90;18.67;;;102.90;2227.20;;;;;;5093657;28;20426;-92
2021/11/19 04:53:22;;;;;;;27.83;18.90;;;103.00;2227.20;;;;;;5093485;28;20552;-91
2021/11/19 04:55:49;;;;;;;30.90;18.27;;;103.00;2227.20;;;;;;5093139;28;20368;-92
2021/11/19 04:58:16;;;;;;;33.30;19.53;;;103.00;2227.20;;;;;;5093552;28;20415;-91
2021/11/19 05:00:46;;;;;;;32.43;18.23;;;102.90;2227.20;;;;;;5093158;28;20380;-91
2021/11/19 05:03:13;;;;;;;28.53;18.83;;;102.90;2227.20;;;;;;5093754;28;20372;-93
2021/11/19 05:05:41;;;;;;;30.37;18.70;;;102.80;2227.20;;;;;;5093139;28;20461;-92
2021/11/19 05:08:08;;;;;;;31.27;19.50;;;102.80;2227.20;;;;;;5092929;28;20434;-93
2021/11/19 05:10:37;;;;;;;34.97;20.17;;;102.70;2227.20;;;;;;5093115;28;20368;-93
2021/11/19 05:13:06;;;;;;;33.97;19.97;;;102.60;2227.20;;;;;;5092947;28;20380;-93
2021/11/19 05:15:33;;;;;;;31.70;20.83;;;102.60;2227.20;;;;;;5093153;28;20427;-93
2021/11/19 05:18:00;;;;;;;32.10;20.27;;;102.50;2227.20;;;;;;5093095;28;20380;-91
2021/11/19 05:20:26;;;;;;;33.00;20.33;;;102.50;2227.20;;;;;;5093042;28;20485;-92
2021/11/19 05:22:54;;;;;;;31.43;21.30;;;102.50;2227.20;;;;;;5093118;28;20376;-91
2021/11/19 05:25:25;;;;;;;30.50;19.37;;;102.50;2227.20;;;;;;5092994;28;20424;-92
2021/11/19 05:27:52;;;;;;;29.30;19.83;;;102.50;2227.20;;;;;;5092749;28;20388;-92
2021/11/19 05:30:18;;;;;;;31.60;20.53;;;102.50;2227.20;;;;;;5093180;28;20501;-93
2021/11/19 05:32:45;;;;;;;36.37;22.20;;;102.50;2227.20;;;;;;5093685;28;20389;-91
2021/11/19 05:35:13;;;;;;;38.67;22.47;;;102.50;2227.20;;;;;;5093079;28;20345;-92
2021/11/19 05:37:41;;;;;;;37.20;23.30;;;102.50;2227.20;;;;;;5092921;28;20357;-92
2021/11/19 05:40:10;;;;;;;37.80;23.30;;;102.60;2227.20;;;;;;5093143;28;20368;-92
2021/11/19 05:42:36;;;;;;;36.47;21.53;;;102.60;2227.20;;;;;;5092872;28;20380;-92
2021/11/19 05:45:04;;;;;;;35.50;22.40;;;102.60;2227.20;;;;;;5092812;28;20433;-92
2021/11/19 05:47:30;;;;;;;36.90;22.33;;;102.60;2227.20;;;;;;5095833;28;20495;-92
2021/11/19 05:50:00;;;;;;;34.73;22.00;;;102.60;2227.20;;;;;;5096478;28;20394;-91
2021/11/19 05:52:28;;;;;;;37.57;21.27;;;102.60;2227.20;;;;;;5097036;28;20414;-92
2021/11/19 05:54:54;;;;;;;36.03;21.77;;;102.60;2227.20;;;;;;5096765;28;20472;-92
2021/11/19 05:57:20;;;;;;;35.30;22.30;;;102.60;2227.20;;;;;;5096302;28;20482;-92
2021/11/19 05:59:46;;;;;;;39.77;22.97;;;102.60;2227.20;;;;;;5096430;28;20028;-92
2021/11/19 06:02:16;;;;;;;44.40;24.43;;;102.70;2227.20;;;;;;5096404;28;20376;-91
2021/11/19 06:04:43;;;;;;;43.70;25.47;;;102.70;2227.20;;;;;;5096405;28;20375;-92
2021/11/19 06:07:09;;;;;;;51.47;28.00;;;102.70;2227.20;;;;;;5096285;28;20540;-92
2021/11/19 06:09:37;;;;;;;49.33;29.20;;;102.70;2227.20;;;;;;5096231;28;20373;-92
2021/11/19 06:12:34;;;;;;;55.90;29.93;;;102.70;2227.20;;;;;;5096194;28;20119;-92
2021/11/19 06:15:05;;;;;;;51.07;28.07;;;102.80;2227.20;;;;;;5094690;28;20361;-92
2021/11/19 06:17:38;;;;;;;50.20;31.27;;;102.90;2227.20;;;;;;5096079;28;20380;-92
2021/11/19 06:20:16;;;;;;;60.50;34.88;;;102.90;2227.20;;;;;;5096061;28;20399;-91
2021/11/19 06:22:46;;;;;;;82.10;44.53;;;102.90;2227.20;;;;;;5096142;28;20376;-92
2021/11/19 06:25:21;;;;;;;103.93;49.90;;;102.90;2227.20;;;;;;5096284;28;20329;-93
2021/11/19 06:27:49;;;;;;;83.33;40.67;;;103.00;2227.20;;;;;;5095458;28;20388;-91
2021/11/19 06:30:16;;;;;;;67.30;34.07;;;103.00;2227.20;;;;;;5095646;28;20399;-92
2021/11/19 06:32:43;;;;;;;61.60;32.93;;;102.90;2227.20;;;;;;5095589;28;20043;-92
2021/11/19 06:35:10;;;;;;;57.93;32.23;;;103.00;2227.20;;;;;;5095566;28;20425;-92
2021/11/19 06:37:37;;;;;;;56.20;29.73;;;103.00;2227.20;;;;;;5095602;28;20372;-92
2021/11/19 06:40:06;;;;;;;45.83;28.17;;;103.00;2227.20;;;;;;5095415;28;20461;-92
2021/11/19 06:42:32;;;;;;;45.57;28.23;;;103.00;2227.20;;;;;;5095406;28;20020;-92
2021/11/19 06:44:58;;;;;;;49.83;27.17;;;103.10;2227.20;;;;;;5095403;28;20399;-92
2021/11/19 06:47:24;;;;;;;43.90;27.73;;;103.10;2227.20;;;;;;5095601;28;20372;-92
2021/11/19 06:49:50;;;;;;;46.77;29.77;;;103.20;2227.20;;;;;;5095251;28;20028;-91
2021/11/19 06:52:16;;;;;;;49.80;29.83;;;103.30;2227.20;;;;;;5095251;28;20426;-92
2021/11/19 06:54:43;;;;;;;42.77;27.33;;;128.00;2252.80;;;;;;5095226;28;20350;-92
2021/11/19 06:57:10;;;;;;;56.97;35.10;;;128.00;2252.80;;;;;;5094778;28;20563;-92
2021/11/19 06:59:39;;;;;;;44.33;27.83;;;128.20;2252.80;;;;;;5095132;28;20353;-91
2021/11/19 07:02:06;;;;;;;44.57;26.03;;;128.20;2252.80;;;;;;5095050;28;20369;-92
2021/11/19 07:04:33;;;;;;;42.97;29.73;;;128.30;2252.80;;;;;;5094923;28;20456;-91
2021/11/19 07:07:01;;;;;;;50.07;33.07;;;128.40;2252.80;;;;;;5094950;28;20380;-91
2021/11/19 07:09:27;;;;;;;50.20;34.87;;;128.30;2252.80;;;;;;5094954;28;20472;-91
2021/11/19 07:11:55;;;;;;;51.37;31.77;;;128.60;2252.80;;;;;;5094952;28;20349;-90
2021/11/19 07:14:21;;;;;;;50.10;31.40;;;128.70;2252.80;;;;;;5095094;28;20469;-91
2021/11/19 07:16:48;;;;;;;52.97;30.47;;;128.70;2252.80;;;;;;5094870;28;20364;-91
2021/11/19 07:19:14;;;;;;;54.43;32.20;;;128.70;2252.80;;;;;;5094819;28;20371;-92
2021/11/19 07:21:40;;;;;;;59.73;40.00;;;128.80;2252.80;;;;;;5095494;28;20518;-92
2021/11/19 07:24:07;;;;;;;57.63;39.50;;;128.90;2252.80;;;;;;5094732;28;20342;-92
2021/11/19 07:26:34;;;;;;;118.88;83.80;;;153.60;2252.80;;;;;;5094250;28;20388;-92
2021/11/19 07:29:01;;;;;;;74.73;50.00;;;153.60;2252.80;;;;;;5094441;28;20438;-90
2021/11/19 07:31:27;;;;;;;43.87;28.27;;;153.60;2252.80;;;;;;5094445;28;20345;-92
2021/11/19 07:33:53;;;;;;;47.00;29.90;;;153.70;2252.80;;;;;;5094600;28;20460;-93
2021/11/19 07:36:21;;;;;;;44.97;28.57;;;153.80;2252.80;;;;;;5094894;28;20345;-92
2021/11/19 07:38:49;;;;;;;48.40;29.27;;;154.00;2252.80;;;;;;5094416;28;20432;-93
2021/11/19 07:41:18;;;;;;;44.00;27.77;;;154.00;2252.80;;;;;;5094279;28;20353;-92
2021/11/19 07:43:44;;;;;;;43.40;26.85;;;154.00;2252.80;;;;;;5094812;28;20345;-92
2021/11/19 07:46:14;;;;;;;41.80;26.07;;;154.00;2252.80;;;;;;5094127;28;20376;-92
2021/11/19 07:48:42;;;;;;;44.22;26.42;;;154.10;2252.80;;;;;;5094064;28;20380;-94
2021/11/19 07:51:16;;;;;;;41.72;29.45;;;154.20;2252.80;;;;;;5094027;28;20426;-94
2021/11/19 07:53:44;;;;;;;47.33;30.97;;;154.20;2252.80;;;;;;5094248;28;20389;-94
2021/11/19 07:56:12;;;;;;;54.42;34.72;;;154.30;2252.80;;;;;;5093972;28;20422;-92
2021/11/19 07:58:39;;;;;;;49.78;31.55;;;154.40;2252.80;;;;;;5094135;28;20368;-92
2021/11/19 08:01:07;;;;;;;49.45;29.75;;;154.50;2252.80;;;;;;5094023;28;20466;-94
2021/11/19 08:03:33;;;;;;;56.20;32.20;;;179.20;2252.80;;;;;;5093920;28;20363;-93
2021/11/19 08:06:01;;;;;;;52.65;30.55;;;179.30;2252.80;;;;;;5093828;28;20451;-92
2021/11/19 08:08:31;;;;;;;59.03;32.17;;;179.50;2252.80;;;;;;5093301;28;20456;-93
2021/11/19 08:10:58;;;;;;;49.85;32.90;;;179.50;2252.80;;;;;;5094454;28;20406;-93
2021/11/19 08:13:24;;;;;;;48.42;28.85;;;179.70;2252.80;;;;;;5094202;28;20384;-93
2021/11/19 08:15:51;;;;;;;43.50;28.67;;;179.60;2252.80;;;;;;5094041;28;20417;-92
2021/11/19 08:18:42;;;;;;;44.03;27.08;;;179.70;2252.80;;;;;;5094051;28;20410;-93
2021/11/19 08:21:09;;;;;;;43.30;26.77;;;179.70;2252.80;;;;;;5094178;28;20407;-93
2021/11/19 08:23:41;;;;;;;48.45;29.15;;;179.70;2252.80;;;;;;5093916;28;20443;-93
2021/11/19 08:26:23;;;;;;;46.15;27.35;;;179.80;2252.80;;;;;;5093688;28;20389;-92
2021/11/19 08:28:50;;;;;;;37.08;23.75;;;179.80;2252.80;;;;;;5093481;28;20409;-93
2021/11/19 08:31:21;;;;;;;39.90;23.15;;;179.90;2252.80;;;;;;5093759;28;20066;-93
2021/11/19 08:33:48;;;;;;;38.40;25.10;;;180.00;2252.80;;;;;;5093677;28;20395;-91
2021/11/19 08:36:17;;;;;;;44.22;25.20;;;204.90;2252.80;;;;;;5093536;28;20432;-90
2021/11/19 08:38:44;;;;;;;41.00;25.98;;;205.00;2252.80;;;;;;5093450;28;20377;-93
2021/11/19 08:41:12;;;;;;;46.95;25.92;;;205.10;2252.80;;;;;;5093930;28;20466;-94
2021/11/19 08:43:41;;;;;;;40.50;22.75;;;205.10;2252.80;;;;;;5110462;28;20477;-89
2021/11/19 08:46:10;;;;;;;39.67;23.92;;;205.10;2252.80;;;;;;5093400;28;20345;-89
2021/11/19 08:48:39;;;;;;;37.10;23.40;;;205.20;2252.80;;;;;;5093269;28;20425;-93
2021/11/19 08:51:10;;;;;;;34.08;22.63;;;205.20;2252.80;;;;;;5093249;28;20376;-91
2021/11/19 08:53:38;;;;;;;43.30;26.00;;;205.30;2252.80;;;;;;5093921;28;20032;-94
2021/11/19 08:56:05;;;;;;;35.60;22.83;;;205.30;2252.80;;;;;;5093729;28;20361;-90
2021/11/19 08:58:35;;;;;;;37.35;23.77;;;205.50;2252.80;;;;;;5093298;28;20020;-90
2021/11/19 09:01:03;;;;;;;41.42;25.35;;;230.40;2252.80;;;;;;5093298;28;20380;-90
2021/11/19 09:03:37;;;;;;;36.15;22.77;;;205.70;2252.80;;;;;;5093044;28;20414;-89
2021/11/19 09:06:09;;;;;;;32.60;20.23;;;205.70;2252.80;;;;;;5095355;28;20360;-89
2021/11/19 09:08:37;;;;;;;33.60;21.15;;;205.70;2252.80;;;;;;5093043;28;20078;-90
2021/11/19 09:11:05;;;;;;;38.85;21.40;;;205.70;2252.80;;;;;;5093128;28;20368;-90
2021/11/19 09:13:32;;;;;;;36.17;22.00;;;230.40;2252.80;;;;;;5093250;28;20388;-90
2021/11/19 09:16:00;;;;;;;34.65;21.88;;;230.50;2252.80;;;;;;5092984;28;20376;-90
2021/11/19 09:18:27;;;;;;;36.72;23.60;;;230.50;2252.80;;;;;;5092935;28;20431;-93
2021/11/19 09:21:13;;;;;;;40.50;25.80;;;230.40;2252.80;;;;;;5095182;28;20479;-90
2021/11/19 09:23:47;;;;;;;47.28;28.52;;;230.40;2252.80;;;;;;5097677;28;20357;-88
2021/11/19 09:26:19;;;;;;;50.08;30.48;;;230.50;2252.80;;;;;;5097114;28;20350;-91
2021/11/19 09:28:49;;;;;;;50.65;31.88;;;230.50;2252.80;;;;;;5097044;28;20467;-91
2021/11/19 09:31:19;;;;;;;48.08;30.35;;;230.40;2252.80;;;;;;5096761;28;20419;-90
2021/11/19 09:33:49;;;;;;;60.92;39.72;;;230.40;2252.80;;;;;;5096613;28;20350;-89
2021/11/19 09:36:17;;;;;;;51.00;34.67;;;230.50;2252.80;;;;;;5097851;28;20410;-90
2021/11/19 09:38:44;;;;;;;88.90;51.75;;;230.60;2252.80;;;;;;5096561;28;20533;-91
2021/11/19 09:41:37;;;;;;;70.47;41.67;;;230.60;2252.80;;;;;;5096421;28;20414;-87
2021/11/19 09:44:06;;;;;;;100.53;60.33;;;230.60;2252.80;;;;;;5096502;28;20448;-92
2021/11/19 09:46:53;;;;;;;51.15;32.67;;;230.80;2252.80;;;;;;5096405;28;20445;-90
2021/11/19 09:50:07;;;;;;;63.70;41.38;;;230.60;2252.80;;;;;;5096528;28;20055;-89
2021/11/19 09:56:26;;;;;;;67.05;41.38;;;230.60;2252.80;;;;;;5097637;28;20498;-88
2021/11/19 09:59:06;;;;;;;89.53;53.20;;;230.70;2252.80;;;;;;5096284;28;20377;-90
2021/11/19 10:01:41;;;;;;;89.57;55.42;;;230.70;2252.80;;;;;;5096452;28;20398;-93
2021/11/19 10:04:38;;;;;;;61.15;38.13;;;230.80;2252.80;;;;;;5096307;28;20364;-91
2021/11/19 10:07:33;;;;;;;57.60;37.25;;;230.90;2252.80;;;;;;5095893;28;20418;-93
2021/11/19 10:10:15;;;;;;;52.80;36.40;;;231.00;2252.80;;;;;;5096036;28;20468;-90
2021/11/19 10:12:53;;;;;;;44.60;31.23;;;231.00;2252.80;;;;;;5096432;28;20399;-91
2021/11/19 10:15:25;;;;;;;39.00;27.58;;;231.00;2252.80;;;;;;5096076;28;20372;-92
2021/11/19 10:18:11;;;;;;;41.00;31.55;;;231.00;2252.80;;;;;;5096049;28;20371;-91
2021/11/19 10:21:03;;;;;;;28.35;20.52;;;231.10;2252.80;;;;;;5096639;28;20467;-93
2021/11/19 10:23:34;;;;;;;36.58;23.73;;;231.00;2252.80;;;;;;5069205;28;20544;-91
2021/11/19 10:26:19;;;;;;;32.17;22.48;;;231.00;2252.80;;;;;;5095953;28;20381;-94
2021/11/19 10:28:54;;;;;;;39.53;30.67;;;231.00;2252.80;;;;;;5096769;28;20451;-93
2021/11/19 10:31:23;;;;;;;34.00;24.92;;;231.20;2252.80;;;;;;5095711;28;20487;-93
2021/11/19 10:34:14;;;;;;;31.30;22.42;;;231.20;2252.80;;;;;;5095588;28;20617;-90
2021/11/19 10:36:55;;;;;;;32.60;24.00;;;231.10;2252.80;;;;;;5095704;28;20342;-91
2021/11/19 10:39:46;;;;;;;42.35;27.58;;;231.10;2252.80;;;;;;5095492;28;20483;-88
2021/11/19 10:42:49;;;;;;;31.35;19.83;;;231.10;2252.80;;;;;;5095369;28;20484;-91
2021/11/19 10:45:37;;;;;;;28.77;19.88;;;231.10;2252.80;;;;;;5096645;28;20028;-90
2021/11/19 10:48:27;;;;;;;30.20;19.90;;;231.10;2252.80;;;;;;5095319;28;20392;-92
2021/11/19 10:51:19;;;;;;;28.10;18.58;;;231.10;2252.80;;;;;;5097349;28;20464;-91
2021/11/19 10:54:04;;;;;;;30.48;19.52;;;231.10;2252.80;;;;;;5097993;28;20444;-90
2021/11/19 10:56:43;;;;;;;31.25;22.17;;;231.20;2252.80;;;;;;5099768;28;20402;-90
2021/11/19 10:59:29;;;;;;;28.05;19.63;;;231.20;2252.80;;;;;;5110938;28;20020;-88
2021/11/19 11:02:08;;;;;;;25.80;18.15;;;231.20;2252.80;;;;;;5106504;28;20357;-93
2021/11/19 11:05:00;;;;;;;30.73;19.55;;;231.30;2252.80;;;;;;5103109;28;20450;-92
2021/11/19 11:07:40;;;;;;;37.60;20.55;;;231.30;2252.80;;;;;;5107191;28;20433;-94
2021/11/19 11:10:29;;;;;;;29.08;18.83;;;231.30;2252.80;;;;;;5108841;28;20027;-96
2021/11/19 11:12:55;;;;;;;29.73;18.10;;;256.00;2252.80;;;;;;5102954;28;20046;-86
2021/11/19 11:15:31;;;;;;;29.88;17.98;;;231.30;2252.80;;;;;;5104057;28;20379;-89
2021/11/19 11:18:00;;;;;;;24.05;17.83;;;256.00;2252.80;;;;;;5107276;28;20365;-90
2021/11/19 11:20:38;;;;;;;27.95;20.10;;;231.30;2252.80;;;;;;5107408;28;20028;-94
2021/11/19 11:23:22;;;;;;;28.52;17.92;;;256.00;2252.80;;;;;;5102765;28;20360;-89
2021/11/19 11:26:16;;;;;;;25.95;18.45;;;256.00;2252.80;;;;;;5105103;28;20372;-91
2021/11/19 11:29:19;;;;;;;27.48;18.40;;;256.10;2252.80;;;;;;5101593;28;20054;-92
2021/11/19 11:31:57;;;;;;;25.30;16.77;;;256.10;2252.80;;;;;;5100680;28;20407;-91
2021/11/19 11:34:35;;;;;;;27.95;18.77;;;256.10;2252.80;;;;;;5102559;28;20342;-96
2021/11/19 11:37:11;;;;;;;37.83;23.20;;;256.10;2252.80;;;;;;5101607;28;20457;-88
2021/11/19 11:39:56;;;;;;;35.50;20.60;;;256.10;2252.80;;;;;;5098042;28;20338;-93
2021/11/19 11:42:38;;;;;;;41.20;25.27;;;256.10;2252.80;;;;;;5100716;28;20455;-90
2021/11/19 11:45:23;;;;;;;38.53;21.58;;;256.10;2252.80;;;;;;5098933;28;20474;-91
2021/11/19 11:48:17;;;;;;;28.33;18.40;;;256.30;2252.80;;;;;;5098210;28;20380;-90
2021/11/19 11:51:05;;;;;;;36.97;23.00;;;256.30;2252.80;;;;;;5114541;28;20368;-89
2021/11/19 11:53:54;;;;;;;31.63;22.52;;;256.40;2252.80;;;;;;5097233;28;20430;-92
2021/11/19 11:56:30;;;;;;;33.22;22.10;;;256.50;2252.80;;;;;;5096815;28;20417;-88
2021/11/19 11:59:17;;;;;;;33.58;22.80;;;256.50;2252.80;;;;;;5094761;28;20395;-89
2021/11/19 12:01:50;;;;;;;30.58;21.58;;;256.60;2252.80;;;;;;5096046;28;20383;-87
2021/11/19 12:04:43;;;;;;;26.13;17.67;;;256.70;2252.80;;;;;;5094095;28;20398;-89
2021/11/19 12:07:48;;;;;;;24.80;15.90;;;256.80;2252.80;;;;;;5093923;28;20384;-90
2021/11/19 12:10:39;;;;;;;34.55;23.00;;;256.70;2252.80;;;;;;5091056;28;20369;-88
2021/11/19 12:13:47;;;;;;;36.65;22.52;;;256.70;2252.80;;;;;;5094514;28;20526;-89
2021/11/19 12:16:46;;;;;;;27.42;17.80;;;256.70;2252.80;;;;;;5017074;28;20493;-88
2021/11/19 12:19:32;;;;;;;32.45;19.15;;;256.70;2252.80;;;;;;5018225;28;20092;-88
2021/11/19 12:22:07;;;;;;;25.95;17.63;;;256.70;2252.80;;;;;;5016990;28;20079;-88
2021/11/19 12:24:35;;;;;;;30.42;19.67;;;256.70;2252.80;;;;;;5016504;28;20443;-88
2021/11/19 12:27:25;;;;;;;26.88;18.05;;;256.80;2252.80;;;;;;5015677;28;20440;-90
2021/11/19 12:30:00;;;;;;;24.40;16.10;;;256.70;2252.80;;;;;;5017080;28;20449;-94
2021/11/19 12:32:34;;;;;;;26.50;16.25;;;256.70;2252.80;;;;;;5016975;28;20497;-88
2021/11/19 12:35:24;;;;;;;22.90;16.67;;;256.70;2252.80;;;;;;5016729;28;20430;-89